sensor_id;sensor_type;location;lat;lon;timestamp;P1;durP1;ratioP1;P2;durP2;ratioP2
23400;SDS011;11873;49.300;8.920;2023-08-12T00:02:01;2.77;;;2.50;;
23400;SDS011;11873;49.300;8.920;2023-08-12T00:07:01;2.93;;;2.47;;
23400;SDS011;11873;49.300;8.920;2023-08-12T00:12:01;3.73;;;2.97;;
23400;SDS011;11873;49.300;8.920;2023-08-12T00:17:01;4.80;;;3.30;;
23400;SDS011;11873;49.300;8.920;2023-08-12T00:22:01;4.80;;;3.07;;
23400;SDS011;11873;49.300;8.920;2023-08-12T00:27:01;5.37;;;3.20;;
23400;SDS011;11873;49.300;8.920;2023-08-12T00:32:02;5.32;;;3.03;;
23400;SDS011;11873;49.300;8.920;2023-08-12T00:37:02;4.83;;;3.27;;
23400;SDS011;11873;49.300;8.920;2023-08-12T00:42:03;4.03;;;2.63;;
23400;SDS011;11873;49.300;8.920;2023-08-12T00:47:03;5.80;;;3.15;;
23400;SDS011;11873;49.300;8.920;2023-08-12T00:52:03;4.40;;;2.87;;
23400;SDS011;11873;49.300;8.920;2023-08-12T00:57:04;2.90;;;2.70;;
23400;SDS011;11873;49.300;8.920;2023-08-12T01:02:05;3.67;;;3.37;;
23400;SDS011;11873;49.300;8.920;2023-08-12T01:07:05;3.33;;;3.03;;
23400;SDS011;11873;49.300;8.920;2023-08-12T01:12:10;3.47;;;3.17;;
23400;SDS011;11873;49.300;8.920;2023-08-12T01:17:12;4.50;;;3.30;;
23400;SDS011;11873;49.300;8.920;2023-08-12T01:22:14;3.10;;;2.80;;
23400;SDS011;11873;49.300;8.920;2023-08-12T01:27:14;5.93;;;3.53;;
23400;SDS011;11873;49.300;8.920;2023-08-12T01:32:19;5.23;;;3.13;;
23400;SDS011;11873;49.300;8.920;2023-08-12T01:37:23;6.53;;;3.17;;
23400;SDS011;11873;49.300;8.920;2023-08-12T01:42:24;3.23;;;2.87;;
23400;SDS011;11873;49.300;8.920;2023-08-12T01:47:25;3.10;;;2.77;;
23400;SDS011;11873;49.300;8.920;2023-08-12T01:52:25;2.67;;;2.47;;
23400;SDS011;11873;49.300;8.920;2023-08-12T01:57:25;3.70;;;3.20;;
23400;SDS011;11873;49.300;8.920;2023-08-12T02:02:25;3.70;;;3.17;;
23400;SDS011;11873;49.300;8.920;2023-08-12T02:07:25;4.47;;;3.03;;
23400;SDS011;11873;49.300;8.920;2023-08-12T02:12:26;4.00;;;2.70;;
23400;SDS011;11873;49.300;8.920;2023-08-12T02:17:26;3.17;;;2.50;;
23400;SDS011;11873;49.300;8.920;2023-08-12T02:22:26;6.77;;;2.93;;
23400;SDS011;11873;49.300;8.920;2023-08-12T02:27:26;3.63;;;2.73;;
23400;SDS011;11873;49.300;8.920;2023-08-12T02:32:26;7.07;;;3.03;;
23400;SDS011;11873;49.300;8.920;2023-08-12T02:37:27;2.77;;;2.57;;
23400;SDS011;11873;49.300;8.920;2023-08-12T02:42:27;2.93;;;2.73;;
23400;SDS011;11873;49.300;8.920;2023-08-12T02:47:27;3.53;;;3.07;;
23400;SDS011;11873;49.300;8.920;2023-08-12T02:52:28;3.70;;;3.13;;
23400;SDS011;11873;49.300;8.920;2023-08-12T02:57:28;4.47;;;3.03;;
23400;SDS011;11873;49.300;8.920;2023-08-12T03:02:28;4.87;;;3.07;;
23400;SDS011;11873;49.300;8.920;2023-08-12T03:07:28;3.70;;;3.40;;
23400;SDS011;11873;49.300;8.920;2023-08-12T03:12:28;4.23;;;3.07;;
23400;SDS011;11873;49.300;8.920;2023-08-12T03:17:28;5.43;;;3.30;;
23400;SDS011;11873;49.300;8.920;2023-08-12T03:22:29;3.40;;;3.10;;
23400;SDS011;11873;49.300;8.920;2023-08-12T03:27:29;3.37;;;3.07;;
23400;SDS011;11873;49.300;8.920;2023-08-12T03:32:29;3.50;;;3.20;;
23400;SDS011;11873;49.300;8.920;2023-08-12T03:37:29;6.90;;;3.20;;
23400;SDS011;11873;49.300;8.920;2023-08-12T03:42:29;3.20;;;2.90;;
23400;SDS011;11873;49.300;8.920;2023-08-12T03:47:30;3.10;;;2.90;;
23400;SDS011;11873;49.300;8.920;2023-08-12T03:52:30;5.80;;;3.40;;
23400;SDS011;11873;49.300;8.920;2023-08-12T03:57:30;3.60;;;3.30;;
23400;SDS011;11873;49.300;8.920;2023-08-12T04:02:30;5.33;;;3.13;;
23400;SDS011;11873;49.300;8.920;2023-08-12T04:07:31;4.93;;;3.30;;
23400;SDS011;11873;49.300;8.920;2023-08-12T04:12:31;3.37;;;3.07;;
23400;SDS011;11873;49.300;8.920;2023-08-12T04:17:31;3.70;;;3.17;;
23400;SDS011;11873;49.300;8.920;2023-08-12T04:22:32;5.70;;;3.20;;
23400;SDS011;11873;49.300;8.920;2023-08-12T04:27:32;7.27;;;3.40;;
23400;SDS011;11873;49.300;8.920;2023-08-12T04:32:32;3.30;;;3.00;;
23400;SDS011;11873;49.300;8.920;2023-08-12T04:37:32;4.03;;;3.00;;
23400;SDS011;11873;49.300;8.920;2023-08-12T04:42:33;4.73;;;3.20;;
23400;SDS011;11873;49.300;8.920;2023-08-12T04:47:33;4.63;;;3.03;;
23400;SDS011;11873;49.300;8.920;2023-08-12T04:52:33;3.83;;;3.00;;
23400;SDS011;11873;49.300;8.920;2023-08-12T04:57:33;3.60;;;3.30;;
23400;SDS011;11873;49.300;8.920;2023-08-12T05:02:34;4.43;;;3.60;;
23400;SDS011;11873;49.300;8.920;2023-08-12T05:07:34;5.17;;;3.30;;
23400;SDS011;11873;49.300;8.920;2023-08-12T05:12:34;5.07;;;3.13;;
23400;SDS011;11873;49.300;8.920;2023-08-12T05:17:34;4.67;;;3.23;;
23400;SDS011;11873;49.300;8.920;2023-08-12T05:22:34;3.97;;;3.10;;
23400;SDS011;11873;49.300;8.920;2023-08-12T05:27:34;4.20;;;2.73;;
23400;SDS011;11873;49.300;8.920;2023-08-12T05:32:35;5.73;;;3.03;;
23400;SDS011;11873;49.300;8.920;2023-08-12T05:37:35;3.93;;;3.07;;
23400;SDS011;11873;49.300;8.920;2023-08-12T05:42:35;7.37;;;3.37;;
23400;SDS011;11873;49.300;8.920;2023-08-12T05:47:35;3.63;;;3.27;;
23400;SDS011;11873;49.300;8.920;2023-08-12T05:52:36;3.50;;;3.20;;
23400;SDS011;11873;49.300;8.920;2023-08-12T05:57:36;3.17;;;2.87;;
23400;SDS011;11873;49.300;8.920;2023-08-12T06:02:36;4.00;;;2.93;;
23400;SDS011;11873;49.300;8.920;2023-08-12T06:07:36;3.40;;;3.10;;
23400;SDS011;11873;49.300;8.920;2023-08-12T06:12:36;4.13;;;3.40;;
23400;SDS011;11873;49.300;8.920;2023-08-12T06:17:36;4.30;;;3.23;;
23400;SDS011;11873;49.300;8.920;2023-08-12T06:22:37;4.20;;;3.80;;
23400;SDS011;11873;49.300;8.920;2023-08-12T06:27:37;5.60;;;3.40;;
23400;SDS011;11873;49.300;8.920;2023-08-12T06:32:38;5.90;;;3.20;;
23400;SDS011;11873;49.300;8.920;2023-08-12T06:37:38;4.40;;;2.97;;
23400;SDS011;11873;49.300;8.920;2023-08-12T06:42:38;4.30;;;3.10;;
23400;SDS011;11873;49.300;8.920;2023-08-12T06:47:38;3.23;;;3.03;;
23400;SDS011;11873;49.300;8.920;2023-08-12T06:52:38;3.90;;;3.07;;
23400;SDS011;11873;49.300;8.920;2023-08-12T06:57:38;4.43;;;4.03;;
23400;SDS011;11873;49.300;8.920;2023-08-12T07:02:39;7.00;;;3.80;;
23400;SDS011;11873;49.300;8.920;2023-08-12T07:07:39;3.77;;;3.30;;
23400;SDS011;11873;49.300;8.920;2023-08-12T07:12:39;4.27;;;3.30;;
23400;SDS011;11873;49.300;8.920;2023-08-12T07:17:39;4.87;;;3.43;;
23400;SDS011;11873;49.300;8.920;2023-08-12T07:22:39;6.13;;;3.60;;
23400;SDS011;11873;49.300;8.920;2023-08-12T07:27:40;4.17;;;3.77;;
23400;SDS011;11873;49.300;8.920;2023-08-12T07:32:41;4.97;;;3.87;;
23400;SDS011;11873;49.300;8.920;2023-08-12T07:37:41;8.03;;;5.07;;
23400;SDS011;11873;49.300;8.920;2023-08-12T07:42:41;5.73;;;4.70;;
23400;SDS011;11873;49.300;8.920;2023-08-12T07:47:41;4.50;;;4.10;;
23400;SDS011;11873;49.300;8.920;2023-08-12T07:52:42;4.70;;;3.87;;
23400;SDS011;11873;49.300;8.920;2023-08-12T07:57:42;5.33;;;4.60;;
23400;SDS011;11873;49.300;8.920;2023-08-12T08:02:42;6.53;;;4.60;;
23400;SDS011;11873;49.300;8.920;2023-08-12T08:07:42;7.27;;;4.20;;
23400;SDS011;11873;49.300;8.920;2023-08-12T08:12:42;6.93;;;4.57;;
23400;SDS011;11873;49.300;8.920;2023-08-12T08:17:42;5.80;;;4.33;;
23400;SDS011;11873;49.300;8.920;2023-08-12T08:22:43;4.47;;;3.27;;
23400;SDS011;11873;49.300;8.920;2023-08-12T08:27:43;4.13;;;3.73;;
23400;SDS011;11873;49.300;8.920;2023-08-12T08:32:43;5.33;;;4.60;;
23400;SDS011;11873;49.300;8.920;2023-08-12T08:37:44;4.60;;;4.20;;
23400;SDS011;11873;49.300;8.920;2023-08-12T08:42:44;3.80;;;3.50;;
23400;SDS011;11873;49.300;8.920;2023-08-12T08:47:46;7.03;;;4.60;;
23400;SDS011;11873;49.300;8.920;2023-08-12T08:52:47;4.93;;;4.53;;
23400;SDS011;11873;49.300;8.920;2023-08-12T08:57:48;5.13;;;4.33;;
23400;SDS011;11873;49.300;8.920;2023-08-12T09:02:49;4.27;;;3.87;;
23400;SDS011;11873;49.300;8.920;2023-08-12T09:07:49;5.60;;;4.87;;
23400;SDS011;11873;49.300;8.920;2023-08-12T09:12:49;4.90;;;4.17;;
23400;SDS011;11873;49.300;8.920;2023-08-12T09:17:50;4.62;;;4.05;;
23400;SDS011;11873;49.300;8.920;2023-08-12T09:22:57;5.37;;;3.83;;
23400;SDS011;11873;49.300;8.920;2023-08-12T09:28:00;9.00;;;4.27;;
23400;SDS011;11873;49.300;8.920;2023-08-12T09:33:01;4.53;;;4.13;;
23400;SDS011;11873;49.300;8.920;2023-08-12T09:38:02;5.10;;;4.50;;
23400;SDS011;11873;49.300;8.920;2023-08-12T09:43:03;5.60;;;3.90;;
23400;SDS011;11873;49.300;8.920;2023-08-12T09:48:03;5.20;;;4.47;;
23400;SDS011;11873;49.300;8.920;2023-08-12T09:53:03;5.37;;;3.80;;
23400;SDS011;11873;49.300;8.920;2023-08-12T09:58:04;4.60;;;4.20;;
23400;SDS011;11873;49.300;8.920;2023-08-12T10:03:06;4.77;;;4.37;;
23400;SDS011;11873;49.300;8.920;2023-08-12T10:08:07;5.60;;;4.80;;
23400;SDS011;11873;49.300;8.920;2023-08-12T10:13:07;5.03;;;4.17;;
23400;SDS011;11873;49.300;8.920;2023-08-12T10:18:08;5.37;;;4.87;;
23400;SDS011;11873;49.300;8.920;2023-08-12T10:23:15;5.07;;;4.63;;
23400;SDS011;11873;49.300;8.920;2023-08-12T10:28:18;4.23;;;3.83;;
23400;SDS011;11873;49.300;8.920;2023-08-12T10:33:18;4.37;;;3.93;;
23400;SDS011;11873;49.300;8.920;2023-08-12T10:38:19;5.50;;;4.50;;
23400;SDS011;11873;49.300;8.920;2023-08-12T10:43:19;5.30;;;4.80;;
23400;SDS011;11873;49.300;8.920;2023-08-12T10:48:25;5.20;;;4.23;;
23400;SDS011;11873;49.300;8.920;2023-08-12T10:53:27;4.60;;;4.20;;
23400;SDS011;11873;49.300;8.920;2023-08-12T10:58:34;5.67;;;3.40;;
23400;SDS011;11873;49.300;8.920;2023-08-12T11:03:34;3.37;;;2.93;;
23400;SDS011;11873;49.300;8.920;2023-08-12T11:08:34;2.77;;;2.57;;
23400;SDS011;11873;49.300;8.920;2023-08-12T11:13:46;5.43;;;3.40;;
23400;SDS011;11873;49.300;8.920;2023-08-12T11:18:46;3.27;;;2.97;;
23400;SDS011;11873;49.300;8.920;2023-08-12T11:23:46;5.23;;;3.70;;
23400;SDS011;11873;49.300;8.920;2023-08-12T11:28:47;3.23;;;2.93;;
23400;SDS011;11873;49.300;8.920;2023-08-12T11:33:48;5.20;;;3.93;;
23400;SDS011;11873;49.300;8.920;2023-08-12T11:38:48;5.50;;;4.10;;
23400;SDS011;11873;49.300;8.920;2023-08-12T11:43:48;7.33;;;4.40;;
23400;SDS011;11873;49.300;8.920;2023-08-12T11:48:48;6.87;;;5.63;;
23400;SDS011;11873;49.300;8.920;2023-08-12T11:53:49;8.27;;;5.47;;
23400;SDS011;11873;49.300;8.920;2023-08-12T11:58:49;3.73;;;3.43;;
23400;SDS011;11873;49.300;8.920;2023-08-12T12:03:52;5.67;;;5.03;;
23400;SDS011;11873;49.300;8.920;2023-08-12T12:08:52;6.90;;;6.07;;
23400;SDS011;11873;49.300;8.920;2023-08-12T12:13:53;5.63;;;5.13;;
23400;SDS011;11873;49.300;8.920;2023-08-12T12:18:59;8.17;;;5.80;;
23400;SDS011;11873;49.300;8.920;2023-08-12T12:23:59;8.20;;;6.23;;
23400;SDS011;11873;49.300;8.920;2023-08-12T12:28:59;5.90;;;5.30;;
23400;SDS011;11873;49.300;8.920;2023-08-12T12:34:03;5.97;;;4.90;;
23400;SDS011;11873;49.300;8.920;2023-08-12T12:39:04;5.93;;;4.70;;
23400;SDS011;11873;49.300;8.920;2023-08-12T12:44:04;3.83;;;3.50;;
23400;SDS011;11873;49.300;8.920;2023-08-12T12:49:04;3.80;;;2.87;;
23400;SDS011;11873;49.300;8.920;2023-08-12T12:54:04;3.13;;;2.83;;
23400;SDS011;11873;49.300;8.920;2023-08-12T12:59:05;3.27;;;2.90;;
23400;SDS011;11873;49.300;8.920;2023-08-12T13:04:05;3.57;;;2.67;;
23400;SDS011;11873;49.300;8.920;2023-08-12T13:09:05;3.20;;;2.90;;
23400;SDS011;11873;49.300;8.920;2023-08-12T13:14:05;4.13;;;2.87;;
23400;SDS011;11873;49.300;8.920;2023-08-12T13:19:05;2.87;;;2.67;;
23400;SDS011;11873;49.300;8.920;2023-08-12T13:24:06;4.30;;;3.57;;
23400;SDS011;11873;49.300;8.920;2023-08-12T13:29:06;3.70;;;3.40;;
23400;SDS011;11873;49.300;8.920;2023-08-12T13:34:06;4.60;;;3.33;;
23400;SDS011;11873;49.300;8.920;2023-08-12T13:39:06;3.87;;;3.30;;
23400;SDS011;11873;49.300;8.920;2023-08-12T13:44:06;2.77;;;2.57;;
23400;SDS011;11873;49.300;8.920;2023-08-12T13:49:07;3.00;;;2.80;;
23400;SDS011;11873;49.300;8.920;2023-08-12T13:54:07;4.33;;;2.60;;
23400;SDS011;11873;49.300;8.920;2023-08-12T13:59:07;2.97;;;2.67;;
23400;SDS011;11873;49.300;8.920;2023-08-12T14:04:07;3.87;;;2.87;;
23400;SDS011;11873;49.300;8.920;2023-08-12T14:09:07;2.67;;;2.47;;
23400;SDS011;11873;49.300;8.920;2023-08-12T14:14:08;3.40;;;3.10;;
23400;SDS011;11873;49.300;8.920;2023-08-12T14:19:08;3.50;;;3.20;;
23400;SDS011;11873;49.300;8.920;2023-08-12T14:24:08;4.50;;;3.57;;
23400;SDS011;11873;49.300;8.920;2023-08-12T14:29:08;3.80;;;3.17;;
23400;SDS011;11873;49.300;8.920;2023-08-12T14:34:09;3.17;;;2.80;;
23400;SDS011;11873;49.300;8.920;2023-08-12T14:39:09;3.30;;;3.00;;
23400;SDS011;11873;49.300;8.920;2023-08-12T14:44:09;4.00;;;2.80;;
23400;SDS011;11873;49.300;8.920;2023-08-12T14:49:09;3.93;;;3.53;;
23400;SDS011;11873;49.300;8.920;2023-08-12T14:54:09;3.20;;;2.90;;
23400;SDS011;11873;49.300;8.920;2023-08-12T14:59:09;3.70;;;3.30;;
23400;SDS011;11873;49.300;8.920;2023-08-12T15:04:10;5.63;;;3.10;;
23400;SDS011;11873;49.300;8.920;2023-08-12T15:09:10;8.53;;;3.73;;
23400;SDS011;11873;49.300;8.920;2023-08-12T15:14:10;5.73;;;3.60;;
23400;SDS011;11873;49.300;8.920;2023-08-12T15:19:10;5.67;;;3.50;;
23400;SDS011;11873;49.300;8.920;2023-08-12T15:24:10;5.20;;;3.80;;
23400;SDS011;11873;49.300;8.920;2023-08-12T15:29:11;3.40;;;3.03;;
23400;SDS011;11873;49.300;8.920;2023-08-12T15:34:11;3.83;;;3.00;;
23400;SDS011;11873;49.300;8.920;2023-08-12T15:39:11;4.03;;;3.63;;
23400;SDS011;11873;49.300;8.920;2023-08-12T15:44:12;4.80;;;3.63;;
23400;SDS011;11873;49.300;8.920;2023-08-12T15:49:12;3.40;;;3.10;;
23400;SDS011;11873;49.300;8.920;2023-08-12T15:54:12;3.77;;;3.33;;
23400;SDS011;11873;49.300;8.920;2023-08-12T15:59:15;4.20;;;3.57;;
23400;SDS011;11873;49.300;8.920;2023-08-12T16:04:15;3.20;;;2.90;;
23400;SDS011;11873;49.300;8.920;2023-08-12T16:09:15;3.33;;;3.07;;
23400;SDS011;11873;49.300;8.920;2023-08-12T16:14:15;3.53;;;2.70;;
23400;SDS011;11873;49.300;8.920;2023-08-12T16:19:15;3.47;;;2.80;;
23400;SDS011;11873;49.300;8.920;2023-08-12T16:24:16;4.47;;;3.00;;
23400;SDS011;11873;49.300;8.920;2023-08-12T16:29:16;5.80;;;3.40;;
23400;SDS011;11873;49.300;8.920;2023-08-12T16:34:16;3.47;;;3.17;;
23400;SDS011;11873;49.300;8.920;2023-08-12T16:39:16;3.93;;;2.87;;
23400;SDS011;11873;49.300;8.920;2023-08-12T16:44:16;3.70;;;3.20;;
23400;SDS011;11873;49.300;8.920;2023-08-12T16:49:17;4.70;;;3.00;;
23400;SDS011;11873;49.300;8.920;2023-08-12T16:54:17;4.77;;;3.17;;
23400;SDS011;11873;49.300;8.920;2023-08-12T16:59:17;2.07;;;1.97;;
23400;SDS011;11873;49.300;8.920;2023-08-12T17:04:17;5.50;;;2.30;;
23400;SDS011;11873;49.300;8.920;2023-08-12T17:09:18;3.07;;;2.47;;
23400;SDS011;11873;49.300;8.920;2023-08-12T17:14:18;3.07;;;2.40;;
23400;SDS011;11873;49.300;8.920;2023-08-12T17:19:19;2.90;;;2.13;;
23400;SDS011;11873;49.300;8.920;2023-08-12T17:24:19;2.50;;;2.30;;
23400;SDS011;11873;49.300;8.920;2023-08-12T17:29:19;3.00;;;2.03;;
23400;SDS011;11873;49.300;8.920;2023-08-12T17:34:19;2.60;;;2.40;;
23400;SDS011;11873;49.300;8.920;2023-08-12T17:39:20;3.73;;;2.07;;
23400;SDS011;11873;49.300;8.920;2023-08-12T17:44:20;5.00;;;2.07;;
23400;SDS011;11873;49.300;8.920;2023-08-12T17:49:20;2.40;;;2.20;;
23400;SDS011;11873;49.300;8.920;2023-08-12T17:54:20;2.50;;;2.30;;
23400;SDS011;11873;49.300;8.920;2023-08-12T17:59:21;3.03;;;1.97;;
23400;SDS011;11873;49.300;8.920;2023-08-12T18:04:21;3.53;;;2.57;;
23400;SDS011;11873;49.300;8.920;2023-08-12T18:09:21;2.00;;;1.83;;
23400;SDS011;11873;49.300;8.920;2023-08-12T18:14:21;3.80;;;2.30;;
23400;SDS011;11873;49.300;8.920;2023-08-12T18:19:22;2.63;;;2.43;;
23400;SDS011;11873;49.300;8.920;2023-08-12T18:24:22;3.33;;;2.23;;
23400;SDS011;11873;49.300;8.920;2023-08-12T18:29:22;2.37;;;2.17;;
23400;SDS011;11873;49.300;8.920;2023-08-12T18:34:23;2.30;;;2.10;;
23400;SDS011;11873;49.300;8.920;2023-08-12T18:39:23;2.57;;;1.87;;
23400;SDS011;11873;49.300;8.920;2023-08-12T18:44:23;2.03;;;1.93;;
23400;SDS011;11873;49.300;8.920;2023-08-12T18:49:23;4.03;;;2.20;;
23400;SDS011;11873;49.300;8.920;2023-08-12T18:54:23;4.97;;;1.83;;
23400;SDS011;11873;49.300;8.920;2023-08-12T18:59:24;2.30;;;2.10;;
23400;SDS011;11873;49.300;8.920;2023-08-12T19:04:25;3.93;;;2.30;;
23400;SDS011;11873;49.300;8.920;2023-08-12T19:09:25;4.47;;;2.17;;
23400;SDS011;11873;49.300;8.920;2023-08-12T19:14:25;4.60;;;2.60;;
23400;SDS011;11873;49.300;8.920;2023-08-12T19:19:25;3.13;;;2.83;;
23400;SDS011;11873;49.300;8.920;2023-08-12T19:24:25;4.00;;;2.93;;
23400;SDS011;11873;49.300;8.920;2023-08-12T19:29:26;4.40;;;2.80;;
23400;SDS011;11873;49.300;8.920;2023-08-12T19:34:26;4.87;;;3.30;;
23400;SDS011;11873;49.300;8.920;2023-08-12T19:39:26;2.83;;;2.63;;
23400;SDS011;11873;49.300;8.920;2023-08-12T19:44:26;2.97;;;2.73;;
23400;SDS011;11873;49.300;8.920;2023-08-12T19:49:26;3.57;;;2.70;;
23400;SDS011;11873;49.300;8.920;2023-08-12T19:54:26;4.50;;;3.27;;
23400;SDS011;11873;49.300;8.920;2023-08-12T19:59:27;5.43;;;3.20;;
23400;SDS011;11873;49.300;8.920;2023-08-12T20:04:27;3.30;;;2.87;;
23400;SDS011;11873;49.300;8.920;2023-08-12T20:09:27;4.73;;;3.37;;
23400;SDS011;11873;49.300;8.920;2023-08-12T20:14:27;5.07;;;3.17;;
23400;SDS011;11873;49.300;8.920;2023-08-12T20:19:27;3.10;;;2.80;;
23400;SDS011;11873;49.300;8.920;2023-08-12T20:24:28;3.50;;;3.07;;
23400;SDS011;11873;49.300;8.920;2023-08-12T20:29:28;5.73;;;3.30;;
23400;SDS011;11873;49.300;8.920;2023-08-12T20:34:28;4.33;;;3.20;;
23400;SDS011;11873;49.300;8.920;2023-08-12T20:39:28;4.87;;;3.23;;
23400;SDS011;11873;49.300;8.920;2023-08-12T20:44:29;3.90;;;3.60;;
23400;SDS011;11873;49.300;8.920;2023-08-12T20:49:29;5.20;;;3.70;;
23400;SDS011;11873;49.300;8.920;2023-08-12T20:54:29;5.93;;;3.27;;
23400;SDS011;11873;49.300;8.920;2023-08-12T20:59:29;3.60;;;3.30;;
23400;SDS011;11873;49.300;8.920;2023-08-12T21:04:29;5.10;;;3.90;;
23400;SDS011;11873;49.300;8.920;2023-08-12T21:09:29;4.53;;;3.40;;
23400;SDS011;11873;49.300;8.920;2023-08-12T21:14:30;4.80;;;3.77;;
23400;SDS011;11873;49.300;8.920;2023-08-12T21:19:30;5.30;;;3.67;;
23400;SDS011;11873;49.300;8.920;2023-08-12T21:24:30;3.43;;;3.13;;
23400;SDS011;11873;49.300;8.920;2023-08-12T21:29:30;4.30;;;3.67;;
23400;SDS011;11873;49.300;8.920;2023-08-12T21:34:30;5.90;;;3.70;;
23400;SDS011;11873;49.300;8.920;2023-08-12T21:39:31;4.20;;;3.80;;
23400;SDS011;11873;49.300;8.920;2023-08-12T21:44:31;6.03;;;3.90;;
23400;SDS011;11873;49.300;8.920;2023-08-12T21:49:31;4.93;;;3.60;;
23400;SDS011;11873;49.300;8.920;2023-08-12T21:54:31;3.60;;;3.30;;
23400;SDS011;11873;49.300;8.920;2023-08-12T21:59:31;3.07;;;2.77;;
23400;SDS011;11873;49.300;8.920;2023-08-12T22:04:32;4.17;;;3.47;;
23400;SDS011;11873;49.300;8.920;2023-08-12T22:09:32;3.63;;;3.03;;
23400;SDS011;11873;49.300;8.920;2023-08-12T22:14:32;11.43;;;4.50;;
23400;SDS011;11873;49.300;8.920;2023-08-12T22:19:32;5.10;;;3.47;;
23400;SDS011;11873;49.300;8.920;2023-08-12T22:24:32;6.47;;;3.53;;
23400;SDS011;11873;49.300;8.920;2023-08-12T22:29:32;9.40;;;5.03;;
23400;SDS011;11873;49.300;8.920;2023-08-12T22:34:33;21.20;;;8.70;;
23400;SDS011;11873;49.300;8.920;2023-08-12T22:39:33;16.37;;;6.73;;
23400;SDS011;11873;49.300;8.920;2023-08-12T22:44:33;7.30;;;4.77;;
23400;SDS011;11873;49.300;8.920;2023-08-12T22:49:33;4.80;;;3.50;;
23400;SDS011;11873;49.300;8.920;2023-08-12T22:54:34;13.70;;;5.40;;
23400;SDS011;11873;49.300;8.920;2023-08-12T22:59:34;13.90;;;6.77;;
23400;SDS011;11873;49.300;8.920;2023-08-12T23:04:34;10.27;;;6.40;;
23400;SDS011;11873;49.300;8.920;2023-08-12T23:09:34;13.80;;;5.30;;
23400;SDS011;11873;49.300;8.920;2023-08-12T23:14:34;11.87;;;5.93;;
23400;SDS011;11873;49.300;8.920;2023-08-12T23:19:34;6.47;;;3.60;;
23400;SDS011;11873;49.300;8.920;2023-08-12T23:24:35;4.70;;;3.23;;
23400;SDS011;11873;49.300;8.920;2023-08-12T23:29:35;3.50;;;2.70;;
23400;SDS011;11873;49.300;8.920;2023-08-12T23:34:35;4.07;;;3.33;;
23400;SDS011;11873;49.300;8.920;2023-08-12T23:39:35;3.03;;;2.73;;
23400;SDS011;11873;49.300;8.920;2023-08-12T23:44:35;4.07;;;3.47;;
23400;SDS011;11873;49.300;8.920;2023-08-12T23:49:36;4.67;;;2.87;;
23400;SDS011;11873;49.300;8.920;2023-08-12T23:54:36;3.63;;;2.80;;
23400;SDS011;11873;49.300;8.920;2023-08-12T23:59:36;3.17;;;2.83;;
